Latest Weather Observations for Mount Buller

IDV60801

Issued at 4:32 pm EST Thursday 21 September 2017 (issued every 30 minutes, with the page automatically refreshed every 10 minutes)

About weather observations | Map of weather stations | Latest weather observations for VIC | Other Formats
Station Details ID: 083024 Name: MOUNT BULLER Lat: -37.15 Lon: 146.44 Height: 1707.0 m
Data from the previous 72 hours. | See also: Recent months at Mount Buller
Date/Time
EST
Temp
°C
App
Temp
°C
Dew
Point
°C
Rel
Hum
%
Delta-T
°C
Wind Press
QNH
hPa
Press
MSL
hPa
Rain since
9am
mm
Dir  Spd
km/h
Gust
km/h
Spd
kts
Gust
kts
21/04:30pm 5.3 -5.0 -1.4 62 2.8 - 43 54 23 29 - - -
21/04:00pm 5.9 -2.0 -1.7 58 3.1 - 30 37 16 20 - - -
21/03:30pm 5.6 - 0.0 67 2.4 - - - - - - - -
21/03:00pm 5.3 - -0.3 67 2.4 - - - - - - - 0.0
21/02:30pm 5.7 - -0.4 65 2.6 - - - - - - - -
21/02:00pm 5.4 - -0.2 67 2.4 - - - - - - - -
21/01:30pm 5.9 - -1.5 59 3.1 - - - - - - - -
21/01:00pm 6.0 - -3.1 52 3.6 - - - - - - - -
21/12:30pm 5.8 - -2.3 56 3.3 - - - - - - - -
21/12:00pm 5.7 - -2.1 57 3.2 - - - - - - - -
21/11:30am 4.6 - -1.4 65 2.5 - - - - - - - -
21/11:00am 4.5 - -1.1 67 2.3 - - - - - - - -
21/10:30am 4.6 - -1.8 63 2.6 - - - - - - - -
21/10:00am 4.2 - -2.0 64 2.5 - - - - - - - -
21/09:30am 3.6 - -2.3 65 2.3 - - - - - - - -
21/09:00am 4.4 - -4.8 51 3.5 - - - - - - - 0.0
21/08:30am 4.5 - -5.3 49 3.6 - - - - - - - -
21/08:00am 4.3 - -6.9 44 4.0 - - - - - - - -
21/07:30am 3.9 - -6.9 45 3.8 - - - - - - - -
21/07:00am 3.5 - -6.5 48 3.8 - - - - - - - -
21/06:30am 3.1 - -7.1 47 3.7 - - - - - - - -
21/06:00am 3.7 - -8.6 40 4.4 - - - - - - - -
21/05:30am 3.5 - -9.1 39 4.4 - - - - - - - -
21/05:00am 3.5 - -9.1 39 4.4 - - - - - - - -
21/04:30am 3.1 - -8.8 41 4.2 - - - - - - - -
21/04:00am 3.8 - -9.9 36 4.7 - - - - - - - -
21/03:30am 4.0 - -9.7 36 4.8 - - - - - - - -
21/03:00am 2.9 - -8.4 43 4.0 - - - - - - - 0.0
21/02:30am 3.2 - -9.1 40 4.3 - - - - - - - -
21/02:00am 3.3 - -9.0 40 4.3 - - - - - - - -
21/01:30am 4.1 - -9.6 36 4.8 - - - - - - - -
21/01:00am 4.4 - -10.4 33 5.1 - - - - - - - -
21/12:30am 4.6 - -10.6 32 5.2 - - - - - - - -
21/12:00am 4.5 - -10.3 33 5.1 - - - - - - - -
 
Date/Time
EST
Temp
°C
App
Temp
°C
Dew
Point
°C
Rel
Hum
%
Delta-T
°C
Wind Press
QNH
hPa
Press
MSL
hPa
Rain since
9am
mm
Dir  Spd
km/h
Gust
km/h
Spd
kts
Gust
kts
20/11:30pm 4.8 - -10.9 31 5.4 - - - - - - - -
20/11:00pm 4.1 - -10.0 35 4.9 - - - - - - - -
20/10:30pm 4.2 - -9.5 36 4.8 - - - - - - - -
20/10:00pm 4.1 - -9.6 36 4.8 - - - - - - - -
20/09:30pm 4.2 - -10.2 34 5.0 - - - - - - - -
20/09:00pm 4.1 - -10.0 35 4.9 - - - - - - - 0.0
20/08:30pm 4.6 - -10.3 33 5.2 - - - - - - - -
20/08:00pm 4.2 - -8.5 39 4.6 - - - - - - - -
20/07:30pm 5.1 - -10.2 32 5.1 - - - - - - - -
20/07:00pm 4.6 - -9.2 36 4.9 - - - - - - - -
20/06:30pm 4.8 - -9.0 36 4.7 - - - - - - - -
20/06:00pm 6.2 - -11.4 27 5.8 - - - - - - - -
20/05:30pm 5.0 - -7.8 39 4.5 - - - - - - - -
20/05:00pm 5.6 - -5.1 46 4.1 - - - - - - - -
20/04:30pm 5.3 - -0.7 65 2.5 - - - - - - - -
20/04:00pm 6.0 - -0.9 61 2.9 - - - - - - - -
20/03:30pm 6.2 - -2.4 54 3.5 - - - - - - - -
20/03:00pm 7.2 - -2.2 51 3.9 - - - - - - - 0.0
20/02:30pm 7.2 - 0.0 60 3.1 - - - - - - - -
20/02:00pm 6.4 - -0.3 62 2.9 - - - - - - - -
20/01:30pm 6.5 - -2.6 52 3.7 - - - - - - - -
20/01:00pm 5.9 - -0.2 65 2.6 - - - - - - - -
20/12:30pm 5.0 - -1.9 61 2.8 - - - - - - - -
20/12:00pm 5.1 - -2.2 59 3.0 - - - - - - - -
20/11:30am 4.8 - -1.0 66 2.4 - - - - - - - -
20/11:00am 5.3 - -3.7 52 3.5 - - - - - - - -
20/10:30am 3.9 - -3.6 58 2.9 - - - - - - - -
20/10:00am 3.6 - -5.8 50 3.4 - - - - - - - -
20/09:30am 3.3 - -6.9 47 3.8 - - - - - - - -
20/09:00am 3.1 - -8.8 41 4.2 - - - - - - - 2.0
20/08:30am 2.2 - -7.7 48 3.5 - - - - - - - -
20/08:00am 2.1 - -8.3 46 3.6 - - - - - - - -
20/07:30am 2.0 - -9.8 41 3.9 - - - - - - - -
20/07:00am 1.7 - -9.8 42 3.8 - - - - - - - -
20/06:30am 2.0 - -8.9 44 3.7 - - - - - - - -
20/06:00am 1.7 - -9.5 43 3.7 - - - - - - - -
20/05:30am 1.3 - -9.6 44 3.6 - - - - - - - -
20/05:00am 1.5 - -9.4 44 3.6 - - - - - - - -
20/04:30am 0.9 - -9.1 47 3.3 - - - - - - - -
20/04:00am 0.9 - -9.9 44 3.5 - - - - - - - -
20/03:30am 0.6 - -11.7 39 3.8 - - - - - - - -
20/03:00am 0.4 - -13.2 35 4.0 - - - - - - - 0.0
20/02:30am -0.8 - -11.2 45 3.1 - - - - - - - -
20/02:00am -1.4 - -10.5 50 2.7 - - - - - - - -
20/01:30am -2.5 - -7.2 70 1.4 - - - - - - - -
20/01:00am -1.6 - -10.1 52 2.5 - - - - - - - -
20/12:30am -2.9 - -7.2 72 1.3 - - - - - - - -
20/12:00am -3.5 - -4.3 94 0.1 - - - - - - - -
 
Date/Time
EST
Temp
°C
App
Temp
°C
Dew
Point
°C
Rel
Hum
%
Delta-T
°C
Wind Press
QNH
hPa
Press
MSL
hPa
Rain since
9am
mm
Dir  Spd
km/h
Gust
km/h
Spd
kts
Gust
kts
19/11:30pm -4.3 - -7.2 80 0.7 - - - - - - - -
19/11:00pm -3.5 - -3.6 99 -0.1 - - - - - - - -
19/10:30pm -2.9 - -3.0 99 -0.1 - - - - - - - -
19/10:00pm -3.0 - -3.1 99 -0.1 - - - - - - - -
19/09:30pm -3.0 - -3.1 99 -0.1 - - - - - - - -
19/09:00pm -2.5 - -2.6 99 -0.1 - - - - - - - 0.0
19/08:30pm -2.2 - -2.3 99 -0.1 - - - - - - - -
19/08:00pm -2.4 - -2.5 99 -0.1 - - - - - - - -
19/07:30pm -2.1 - -2.2 99 -0.1 - - - - - - - -
19/07:00pm -2.0 - -2.1 99 -0.1 - - - - - - - -
19/06:30pm -1.8 - -1.9 99 -0.1 - - - - - - - -
19/06:00pm -1.7 - -1.8 99 0.0 - - - - - - - -
19/05:30pm -1.5 - -1.6 99 0.0 - - - - - - - -
19/05:00pm -1.7 - -1.8 99 0.0 - - - - - - - -
19/04:30pm -1.8 - -1.9 99 -0.1 - - - - - - - -
19/04:00pm -2.0 - -2.1 99 -0.1 - - - - - - - -
19/03:30pm -1.6 - -1.7 99 0.0 - - - - - - - -
19/03:00pm -1.6 - -1.7 99 0.0 - - - - - - - 2.0
19/02:30pm -1.7 - -1.8 99 0.0 - - - - - - - -
19/02:00pm -1.7 - -1.8 99 0.0 - - - - - - - -
19/01:30pm -1.5 - -1.6 99 0.0 - - - - - - - -
19/01:00pm -1.9 - -2.0 99 -0.1 - - - - - - - -
19/12:30pm -1.6 - -1.7 99 0.0 - - - - - - - -
19/12:00pm -2.6 - -2.7 99 -0.1 - - - - - - - -
19/11:30am -2.3 - -2.4 99 -0.1 - - - - - - - -
19/11:00am -1.8 - -1.9 99 -0.1 - - - - - - - -
19/10:30am -1.9 - -2.0 99 -0.1 - - - - - - - -
19/10:00am -2.0 - -2.1 99 -0.1 - - - - - - - -
19/09:30am -2.2 - -2.3 99 -0.1 - - - - - - - -
19/09:00am -2.3 - -2.4 99 -0.1 - - - - - - - 15.0
19/08:30am -2.3 - -2.4 99 -0.1 - - - - - - - -
19/08:00am -2.5 - -2.6 99 -0.1 - - - - - - - -
19/07:30am -2.4 - -2.5 99 -0.1 - - - - - - - -
19/07:00am -2.3 - -2.4 99 -0.1 - - - - - - - -
19/06:30am -2.4 - -2.5 99 -0.1 - - - - - - - -
19/06:00am -2.3 - -2.4 99 -0.1 - - - - - - - -
19/05:30am -2.2 - -2.3 99 -0.1 - - - - - - - -
19/05:00am -2.3 - -2.4 99 -0.1 - - - - - - - -
19/04:30am -1.6 - -1.7 99 0.0 - - - - - - - -
19/04:00am -1.5 - -1.6 99 0.0 - - - - - - - -
19/03:30am -1.4 - -1.5 99 0.0 - - - - - - - -
19/03:00am -1.1 - -1.2 99 0.0 - - - - - - - 12.0
19/02:30am -1.0 - -1.1 99 0.0 - - - - - - - -
19/02:00am -1.3 - -1.4 99 0.0 - - - - - - - -
19/01:30am -1.5 - -1.8 98 0.0 - - - - - - - -
19/01:00am -1.8 - -2.2 97 0.1 - - - - - - - -
19/12:30am -0.9 - -1.0 99 0.0 - - - - - - - -
19/12:00am -0.6 - -0.7 99 0.0 - - - - - - - -
 
Date/Time
EST
Temp
°C
App
Temp
°C
Dew
Point
°C
Rel
Hum
%
Delta-T
°C
Wind Press
QNH
hPa
Press
MSL
hPa
Rain since
9am
mm
Dir  Spd
km/h
Gust
km/h
Spd
kts
Gust
kts
18/11:30pm 0.2 - 0.1 99 0.0 - - - - - - - -
18/11:00pm 0.8 - 0.7 99 0.0 - - - - - - - -
18/10:30pm 1.7 - 1.6 99 0.0 - - - - - - - -
18/10:00pm 2.0 - 1.7 98 0.1 - - - - - - - -
18/09:30pm 2.7 - 0.4 85 1.0 - - - - - - - -
18/09:00pm 3.9 - -1.5 68 2.2 - - - - - - - 0.0
18/08:30pm 5.2 - -4.1 51 3.6 - - - - - - - -
18/08:00pm 6.3 - -5.3 43 4.4 - - - - - - - -
18/07:30pm 6.1 - -4.9 45 4.2 - - - - - - - -
18/07:00pm 5.3 - -4.0 51 3.6 - - - - - - - -
18/06:30pm 4.4 - -2.2 62 2.7 - - - - - - - -
18/06:00pm 4.1 - -1.5 67 2.3 - - - - - - - -
18/05:30pm 4.0 - -1.6 67 2.3 - - - - - - - -
18/05:00pm 4.8 - -2.7 58 3.0 - - - - - - - -

Other Formats:

Comma delimited format used in spreadsheet applications
http://www.bom.gov.au/fwo/IDV60801/IDV60801.94894.axf

JavaScript Object Notation format (JSON) in row-major order
http://www.bom.gov.au/fwo/IDV60801/IDV60801.94894.json